createdAt,value
2022-10-23T00:00:59.220Z,6.00
2022-10-23T00:03:33.119Z,6.70
2022-10-23T00:06:18.202Z,5.97
2022-10-23T00:08:58.323Z,6.43
2022-10-23T00:11:32.606Z,6.43
2022-10-23T00:14:07.290Z,6.10
2022-10-23T00:17:01.059Z,6.20
2022-10-23T00:19:42.570Z,6.73
2022-10-23T00:22:21.904Z,7.10
2022-10-23T00:24:55.068Z,6.10
2022-10-23T00:27:34.681Z,6.20
2022-10-23T00:30:16.572Z,5.97
2022-10-23T00:32:56.324Z,6.00
2022-10-23T00:35:32.051Z,5.37
2022-10-23T00:38:09.245Z,6.30
2022-10-23T00:40:46.175Z,6.40
2022-10-23T00:43:31.038Z,6.10
2022-10-23T00:46:16.925Z,5.50
2022-10-23T00:48:49.648Z,6.10
2022-10-23T00:51:29.704Z,5.17
2022-10-23T00:54:24.002Z,6.73
2022-10-23T00:57:00.200Z,6.20
2022-10-23T00:59:38.703Z,5.67
2022-10-23T01:05:17.843Z,6.13
2022-10-23T01:08:10.053Z,5.83
2022-10-23T01:11:03.451Z,5.47
2022-10-23T01:13:54.690Z,5.10
2022-10-23T01:16:38.951Z,4.93
2022-10-23T01:19:23.175Z,5.30
2022-10-23T01:22:06.257Z,5.43
2022-10-23T01:24:51.558Z,6.10
2022-10-23T01:27:26.800Z,5.80
2022-10-23T01:30:08.920Z,6.20
2022-10-23T01:32:52.314Z,6.50
2022-10-23T01:35:26.921Z,6.30
2022-10-23T01:38:01.989Z,5.80
2022-10-23T01:40:35.625Z,5.03
2022-10-23T01:43:11.419Z,6.60
2022-10-23T01:45:43.627Z,6.53
2022-10-23T01:48:16.282Z,5.70
2022-10-23T01:50:46.879Z,6.70
2022-10-23T01:53:15.596Z,7.30
2022-10-23T01:55:45.082Z,6.20
2022-10-23T01:58:16.438Z,7.50
2022-10-23T02:00:48.097Z,6.27
2022-10-23T02:03:18.591Z,7.00
2022-10-23T02:05:47.599Z,6.30
2022-10-23T02:08:17.108Z,7.80
2022-10-23T02:10:51.144Z,6.97
2022-10-23T02:13:26.709Z,8.30
2022-10-23T02:16:05.373Z,7.43
2022-10-23T02:18:40.115Z,8.30
2022-10-23T02:21:13.311Z,8.57
2022-10-23T02:23:53.709Z,7.43
2022-10-23T02:26:29.023Z,7.30
2022-10-23T02:31:34.588Z,6.80
2022-10-23T02:34:03.454Z,7.40
2022-10-23T02:36:32.013Z,6.33
2022-10-23T02:39:00.515Z,7.17
2022-10-23T02:41:45.400Z,6.73
2022-10-23T02:44:33.195Z,7.23
2022-10-23T02:47:15.600Z,7.97
2022-10-23T02:49:50.277Z,8.80
2022-10-23T02:52:24.893Z,8.97
2022-10-23T02:55:07.012Z,8.83
2022-10-23T02:57:42.628Z,9.20
2022-10-23T03:00:15.809Z,9.30
2022-10-23T03:02:51.227Z,11.20
2022-10-23T03:05:23.950Z,11.23
2022-10-23T03:07:52.924Z,9.90
2022-10-23T03:10:21.730Z,11.30
2022-10-23T03:12:50.226Z,9.93
2022-10-23T03:15:20.511Z,11.27
2022-10-23T03:17:49.100Z,10.00
2022-10-23T03:20:17.687Z,11.27
2022-10-23T03:22:46.394Z,10.00
2022-10-23T03:25:15.567Z,9.73
2022-10-23T03:27:44.094Z,10.43
2022-10-23T03:30:13.261Z,10.47
2022-10-23T03:32:43.522Z,11.27
2022-10-23T03:35:12.284Z,11.20
2022-10-23T03:37:42.774Z,10.93
2022-10-23T03:40:12.388Z,9.80
2022-10-23T03:42:40.932Z,9.90
2022-10-23T03:45:10.275Z,10.10
2022-10-23T03:47:41.404Z,10.10
2022-10-23T03:50:13.609Z,8.40
2022-10-23T03:52:42.973Z,8.43
2022-10-23T03:55:12.409Z,9.00
2022-10-23T03:57:40.925Z,9.20
2022-10-23T04:00:10.682Z,10.70
2022-10-23T04:02:40.857Z,10.27
2022-10-23T04:05:11.391Z,8.47
2022-10-23T04:07:40.175Z,8.73
2022-10-23T04:10:09.624Z,8.83
2022-10-23T04:12:38.758Z,9.40
2022-10-23T04:15:11.993Z,8.63
2022-10-23T04:17:41.979Z,10.10
2022-10-23T04:20:16.666Z,10.33
2022-10-23T04:22:50.566Z,9.37
2022-10-23T04:25:21.045Z,10.97
2022-10-23T04:27:51.522Z,11.80
2022-10-23T04:30:23.262Z,8.10
2022-10-23T04:32:58.728Z,13.97
2022-10-23T04:35:30.794Z,10.67
2022-10-23T04:38:00.760Z,13.30
2022-10-23T04:40:29.701Z,11.33
2022-10-23T04:42:58.216Z,11.47
2022-10-23T04:45:26.777Z,11.80
2022-10-23T04:47:56.230Z,12.07
2022-10-23T04:50:25.270Z,12.03
2022-10-23T04:52:57.540Z,11.83
2022-10-23T04:55:26.361Z,12.00
2022-10-23T04:57:54.851Z,10.80
2022-10-23T05:00:23.619Z,12.50
2022-10-23T05:02:52.044Z,11.00
2022-10-23T05:05:20.492Z,10.93
2022-10-23T05:07:49.027Z,11.00
2022-10-23T05:10:19.101Z,11.40
2022-10-23T05:12:47.562Z,13.27
2022-10-23T05:15:16.138Z,14.50
2022-10-23T05:17:47.800Z,13.00
2022-10-23T05:20:21.272Z,14.73
2022-10-23T05:22:51.460Z,13.37
2022-10-23T05:25:21.438Z,14.23
2022-10-23T05:27:49.907Z,11.27
2022-10-23T05:30:18.425Z,12.70
2022-10-23T05:32:46.997Z,13.30
2022-10-23T05:35:20.327Z,12.17
2022-10-23T05:37:50.386Z,12.23
2022-10-23T05:40:20.628Z,13.63
2022-10-23T05:42:49.222Z,11.50
2022-10-23T05:45:18.277Z,13.67
2022-10-23T05:47:47.227Z,13.43
2022-10-23T05:50:15.854Z,12.07
2022-10-23T05:52:46.869Z,10.63
2022-10-23T05:55:15.657Z,11.07
2022-10-23T05:57:45.747Z,12.60
2022-10-23T06:00:15.148Z,12.37
2022-10-23T06:02:43.681Z,12.47
2022-10-23T06:05:12.103Z,14.30
2022-10-23T06:07:40.780Z,14.13
2022-10-23T06:10:09.765Z,14.40
2022-10-23T06:12:38.258Z,16.70
2022-10-23T06:15:10.354Z,18.90
2022-10-23T06:17:39.811Z,21.00
2022-10-23T06:20:09.759Z,23.60
2022-10-23T06:22:38.237Z,31.23
2022-10-23T06:25:07.783Z,18.17
2022-10-23T06:27:36.257Z,15.90
2022-10-23T06:30:05.022Z,16.37
2022-10-23T06:32:34.918Z,19.17
2022-10-23T06:35:03.421Z,19.47
2022-10-23T06:37:34.334Z,16.50
2022-10-23T06:40:02.814Z,25.27
2022-10-23T06:42:31.350Z,24.03
2022-10-23T06:45:03.409Z,27.37
2022-10-23T06:47:36.357Z,23.63
2022-10-23T06:50:05.307Z,24.50
2022-10-23T06:52:46.406Z,24.90
2022-10-23T06:55:15.745Z,22.50
2022-10-23T06:57:44.518Z,23.17
2022-10-23T07:00:14.554Z,22.97
2022-10-23T07:02:44.760Z,24.93
2022-10-23T07:05:13.903Z,24.07
2022-10-23T07:07:42.590Z,24.10
2022-10-23T07:10:11.259Z,22.53
2022-10-23T07:12:39.964Z,23.47
2022-10-23T07:15:09.701Z,23.97
2022-10-23T07:17:38.166Z,22.90
2022-10-23T07:20:08.822Z,24.60
2022-10-23T07:22:38.431Z,24.60
2022-10-23T07:25:07.925Z,24.87
2022-10-23T07:27:39.004Z,22.53
2022-10-23T07:30:08.802Z,22.67
2022-10-23T07:32:37.269Z,22.33
2022-10-23T07:35:08.007Z,23.63
2022-10-23T07:37:36.651Z,23.80
2022-10-23T07:40:05.531Z,24.40
2022-10-23T07:42:34.074Z,25.50
2022-10-23T07:45:04.363Z,23.73
2022-10-23T07:47:33.463Z,25.37
2022-10-23T07:50:02.109Z,25.33
2022-10-23T07:52:35.081Z,24.60
2022-10-23T07:55:04.787Z,23.20
2022-10-23T07:57:33.267Z,27.27
2022-10-23T08:00:01.740Z,24.50
2022-10-23T08:02:30.299Z,25.97
2022-10-23T08:04:58.970Z,24.37
2022-10-23T08:07:27.429Z,23.00
2022-10-23T08:09:57.302Z,22.17
2022-10-23T08:12:25.721Z,22.73
2022-10-23T08:14:54.327Z,21.97
2022-10-23T08:17:25.114Z,22.50
2022-10-23T08:19:56.120Z,22.00
2022-10-23T08:22:24.623Z,21.00
2022-10-23T08:24:53.169Z,20.97
2022-10-23T08:27:22.992Z,22.20
2022-10-23T08:29:51.484Z,20.03
2022-10-23T08:32:20.019Z,20.73
2022-10-23T08:34:48.586Z,18.60
2022-10-23T08:37:17.006Z,19.40
2022-10-23T08:39:47.259Z,19.23
2022-10-23T08:42:27.155Z,14.57
2022-10-23T08:45:02.651Z,15.40
2022-10-23T08:47:37.474Z,13.93
2022-10-23T08:50:11.892Z,13.00
2022-10-23T08:52:46.089Z,12.83
2022-10-23T08:55:20.056Z,11.67
2022-10-23T08:57:58.831Z,12.60
2022-10-23T09:00:27.576Z,12.47
2022-10-23T09:02:56.500Z,12.00
2022-10-23T09:05:31.701Z,12.20
2022-10-23T09:08:13.647Z,9.97
2022-10-23T09:11:02.960Z,11.57
2022-10-23T09:13:56.433Z,9.03
2022-10-23T09:16:37.844Z,7.97
2022-10-23T09:19:15.721Z,8.00
2022-10-23T09:21:45.743Z,7.00
2022-10-23T09:24:17.897Z,6.30
2022-10-23T09:26:49.606Z,5.03
2022-10-23T09:29:25.025Z,6.53
2022-10-23T09:31:55.545Z,5.40
2022-10-23T09:34:26.471Z,4.73
2022-10-23T09:36:57.677Z,6.67
2022-10-23T09:39:30.179Z,4.97
2022-10-23T09:41:59.530Z,6.17
2022-10-23T09:44:31.159Z,6.20
2022-10-23T09:47:11.229Z,5.90
2022-10-23T09:49:47.831Z,5.83
2022-10-23T09:52:26.656Z,6.73
2022-10-23T09:54:57.746Z,5.50
2022-10-23T09:57:32.829Z,6.30
2022-10-23T10:00:16.158Z,4.87
2022-10-23T10:02:55.522Z,7.13
2022-10-23T10:05:27.010Z,5.40
2022-10-23T10:07:59.310Z,5.10
2022-10-23T10:10:34.761Z,4.97
2022-10-23T10:13:11.934Z,4.20
2022-10-23T10:15:50.889Z,4.80
2022-10-23T10:18:24.456Z,4.80
2022-10-23T10:21:15.729Z,4.43
2022-10-23T10:23:51.042Z,5.97
2022-10-23T10:26:33.352Z,6.47
2022-10-23T10:29:13.813Z,5.60
2022-10-23T10:31:55.786Z,5.30
2022-10-23T10:34:30.894Z,4.60
2022-10-23T10:37:03.960Z,5.03
2022-10-23T10:39:42.940Z,5.13
2022-10-23T10:42:34.070Z,5.03
2022-10-23T10:45:27.029Z,5.77
2022-10-23T10:48:13.815Z,6.97
2022-10-23T10:50:47.779Z,5.93
2022-10-23T10:53:24.027Z,5.70
2022-10-23T10:55:55.433Z,5.90
2022-10-23T10:58:31.775Z,5.57
2022-10-23T11:01:03.472Z,5.60
2022-10-23T11:03:42.240Z,5.13
2022-10-23T11:06:17.561Z,4.97
2022-10-23T11:08:56.498Z,5.33
2022-10-23T11:11:32.578Z,6.73
2022-10-23T11:14:01.437Z,5.60
2022-10-23T11:16:34.544Z,5.90
2022-10-23T11:19:11.472Z,6.10
2022-10-23T11:21:47.559Z,5.60
2022-10-23T11:24:45.331Z,6.40
2022-10-23T11:27:44.471Z,6.00
2022-10-23T11:30:21.140Z,5.50
2022-10-23T11:33:22.941Z,6.53
2022-10-23T11:36:06.995Z,6.00
2022-10-23T11:38:37.834Z,5.00
2022-10-23T11:41:19.933Z,5.50
2022-10-23T11:43:53.227Z,6.07
2022-10-23T11:46:37.073Z,5.23
2022-10-23T11:49:20.149Z,5.70
2022-10-23T11:52:00.597Z,5.60
2022-10-23T11:54:29.681Z,5.03
2022-10-23T11:57:12.255Z,5.13
2022-10-23T11:59:54.625Z,5.63
2022-10-23T12:02:38.861Z,5.00
2022-10-23T12:05:09.750Z,4.97
2022-10-23T12:07:41.902Z,6.50
2022-10-23T12:10:31.264Z,5.87
2022-10-23T12:13:01.368Z,5.27
2022-10-23T12:15:30.449Z,5.03
2022-10-23T12:18:14.787Z,6.77
2022-10-23T12:20:51.139Z,4.33
2022-10-23T12:23:47.329Z,5.13
2022-10-23T12:26:31.742Z,5.60
2022-10-23T12:29:09.581Z,4.97
2022-10-23T12:31:48.167Z,5.90
2022-10-23T12:34:30.893Z,4.73
2022-10-23T12:37:09.877Z,4.33
2022-10-23T12:39:41.949Z,5.70
2022-10-23T12:42:18.577Z,4.50
2022-10-23T12:44:47.024Z,4.83
2022-10-23T12:47:19.759Z,5.10
2022-10-23T12:49:51.948Z,4.93
2022-10-23T12:52:24.515Z,4.93
2022-10-23T12:54:59.437Z,5.33
2022-10-23T12:57:30.233Z,5.27
2022-10-23T13:00:02.465Z,4.90
2022-10-23T13:02:35.361Z,5.10
2022-10-23T13:05:07.107Z,5.90
2022-10-23T13:07:39.028Z,4.50
2022-10-23T13:10:14.468Z,4.63
2022-10-23T13:12:47.311Z,5.63
2022-10-23T13:15:19.290Z,5.60
2022-10-23T13:18:00.018Z,5.50
2022-10-23T13:20:31.066Z,4.70
2022-10-23T13:23:02.656Z,4.80
2022-10-23T13:25:34.931Z,4.80
2022-10-23T13:28:20.478Z,5.10
2022-10-23T13:31:04.316Z,5.17
2022-10-23T13:33:36.338Z,5.67
2022-10-23T13:36:20.158Z,4.93
2022-10-23T13:39:02.299Z,4.83
2022-10-23T13:41:41.973Z,4.40
2022-10-23T13:44:17.784Z,4.40
2022-10-23T13:46:48.413Z,4.60
2022-10-23T13:49:17.263Z,5.57
2022-10-23T13:51:49.857Z,4.53
2022-10-23T13:54:21.467Z,4.83
2022-10-23T13:56:51.611Z,5.20
2022-10-23T13:59:20.724Z,4.37
2022-10-23T14:01:51.126Z,5.47
2022-10-23T14:04:20.798Z,4.10
2022-10-23T14:06:49.675Z,4.40
2022-10-23T14:09:20.159Z,5.07
2022-10-23T14:11:50.413Z,4.70
2022-10-23T14:14:19.205Z,4.90
2022-10-23T14:16:47.793Z,4.70
2022-10-23T14:19:16.280Z,4.77
2022-10-23T14:21:44.748Z,5.07
2022-10-23T14:24:14.698Z,4.83
2022-10-23T14:26:43.274Z,5.37
2022-10-23T14:29:21.347Z,5.30
2022-10-23T14:31:51.761Z,4.40
2022-10-23T14:34:20.960Z,5.13
2022-10-23T14:36:56.687Z,5.17
2022-10-23T14:39:32.680Z,6.13
2022-10-23T14:42:01.288Z,6.80
2022-10-23T14:44:31.168Z,7.17
2022-10-23T14:47:00.133Z,6.37
2022-10-23T14:49:28.780Z,5.90
2022-10-23T14:51:57.321Z,5.97
2022-10-23T14:54:26.209Z,8.13
2022-10-23T14:56:54.802Z,6.73
2022-10-23T14:59:23.520Z,6.47
2022-10-23T15:04:23.057Z,6.40
2022-10-23T15:06:52.865Z,7.30
2022-10-23T15:09:21.961Z,6.80
2022-10-23T15:11:52.731Z,7.17
2022-10-23T15:14:21.263Z,7.10
2022-10-23T15:16:49.899Z,6.80
2022-10-23T15:19:19.824Z,7.40
2022-10-23T15:21:49.411Z,6.77
2022-10-23T15:24:18.600Z,7.30
2022-10-23T15:26:47.361Z,7.43
2022-10-23T15:29:16.595Z,6.50
2022-10-23T15:31:47.766Z,7.90
2022-10-23T15:34:19.715Z,12.07
2022-10-23T15:36:49.393Z,8.67
2022-10-23T15:39:20.631Z,9.33
2022-10-23T15:41:54.014Z,8.17
2022-10-23T15:44:24.539Z,9.00
2022-10-23T15:46:54.039Z,11.27
2022-10-23T15:49:26.342Z,11.50
2022-10-23T15:51:55.510Z,10.17
2022-10-23T15:54:26.950Z,10.20
2022-10-23T15:56:58.716Z,10.37
2022-10-23T15:59:27.657Z,9.13
2022-10-23T16:01:57.584Z,8.90
2022-10-23T16:04:28.868Z,8.90
2022-10-23T16:06:57.664Z,9.60
2022-10-23T16:09:26.348Z,8.80
2022-10-23T16:11:54.863Z,9.63
2022-10-23T16:14:23.609Z,10.23
2022-10-23T16:16:52.372Z,9.43
2022-10-23T16:19:20.947Z,8.00
2022-10-23T16:21:51.099Z,9.50
2022-10-23T16:24:19.696Z,8.60
2022-10-23T16:26:53.190Z,7.80
2022-10-23T16:29:22.128Z,8.40
2022-10-23T16:31:51.020Z,8.63
2022-10-23T16:34:20.163Z,8.87
2022-10-23T16:36:50.882Z,9.17
2022-10-23T16:39:21.128Z,9.03
2022-10-23T16:41:49.874Z,8.50
2022-10-23T16:44:18.612Z,11.37
2022-10-23T16:46:47.738Z,12.00
2022-10-23T16:49:16.615Z,15.63
2022-10-23T16:51:45.996Z,14.40
2022-10-23T16:54:18.234Z,13.23
2022-10-23T16:56:51.915Z,10.60
2022-10-23T16:59:20.482Z,9.97
2022-10-23T17:01:49.133Z,8.53
2022-10-23T17:04:17.750Z,9.53
2022-10-23T17:06:46.274Z,9.20
2022-10-23T17:09:17.020Z,9.67
2022-10-23T17:11:46.765Z,8.97
2022-10-23T17:14:18.445Z,9.53
2022-10-23T17:16:49.427Z,10.57
2022-10-23T17:19:43.379Z,10.67
2022-10-23T17:22:12.571Z,11.17
2022-10-23T17:24:46.142Z,10.30
2022-10-23T17:27:17.662Z,10.33
2022-10-23T17:29:46.401Z,10.10
2022-10-23T17:32:15.403Z,9.60
2022-10-23T17:34:43.993Z,10.57
2022-10-23T17:37:13.371Z,9.83
2022-10-23T17:39:43.518Z,10.07
2022-10-23T17:42:12.373Z,10.00
2022-10-23T17:44:40.880Z,12.43
2022-10-23T17:47:09.423Z,11.87
2022-10-23T17:49:39.549Z,11.97
2022-10-23T17:52:14.282Z,11.73
2022-10-23T17:54:47.083Z,10.70
2022-10-23T17:57:15.681Z,12.43
2022-10-23T17:59:44.215Z,14.63
2022-10-23T18:02:14.093Z,11.87
2022-10-23T18:04:42.775Z,15.20
2022-10-23T18:07:11.256Z,15.33
2022-10-23T18:09:40.063Z,13.90
2022-10-23T18:12:10.092Z,13.33
2022-10-23T18:14:38.948Z,15.17
2022-10-23T18:17:07.593Z,12.50
2022-10-23T18:19:36.628Z,14.27
2022-10-23T18:22:05.342Z,17.47
2022-10-23T18:24:34.171Z,16.63
2022-10-23T18:27:02.825Z,14.87
2022-10-23T18:29:32.758Z,14.63
2022-10-23T18:32:01.374Z,14.90
2022-10-23T18:34:29.904Z,15.47
2022-10-23T18:36:58.550Z,15.30
2022-10-23T18:39:27.386Z,14.83
2022-10-23T18:41:57.605Z,15.77
2022-10-23T18:44:29.054Z,14.80
2022-10-23T18:47:00.059Z,14.80
2022-10-23T18:49:29.355Z,15.93
2022-10-23T18:51:58.380Z,16.87
2022-10-23T18:54:27.268Z,20.97
2022-10-23T18:56:55.920Z,21.57
2022-10-23T18:59:25.052Z,18.23
2022-10-23T19:01:54.082Z,18.87
2022-10-23T19:04:24.233Z,19.27
2022-10-23T19:06:53.706Z,17.00
2022-10-23T19:09:22.985Z,16.70
2022-10-23T19:11:51.497Z,16.10
2022-10-23T19:14:19.990Z,16.80
2022-10-23T19:16:59.942Z,17.07
2022-10-23T19:19:34.995Z,14.97
2022-10-23T19:22:05.139Z,16.90
2022-10-23T19:24:46.809Z,16.40
2022-10-23T19:27:15.972Z,17.90
2022-10-23T19:29:47.828Z,17.37
2022-10-23T19:32:16.620Z,17.20
2022-10-23T19:34:48.132Z,16.37
2022-10-23T19:37:17.007Z,17.13
2022-10-23T19:39:45.426Z,14.00
2022-10-23T19:42:14.043Z,15.70
2022-10-23T19:44:42.556Z,16.50
2022-10-23T19:47:11.052Z,16.00
2022-10-23T19:49:39.707Z,17.23
2022-10-23T19:52:09.608Z,15.70
2022-10-23T19:54:40.227Z,15.60
2022-10-23T19:57:08.955Z,14.80
2022-10-23T19:59:37.527Z,15.00
2022-10-23T20:02:06.183Z,15.80
2022-10-23T20:04:34.983Z,15.13
2022-10-23T20:07:03.487Z,14.10
2022-10-23T20:09:34.117Z,15.40
2022-10-23T20:12:03.598Z,15.23
2022-10-23T20:14:32.165Z,15.27
2022-10-23T20:17:01.609Z,13.90
2022-10-23T20:19:30.270Z,13.97
2022-10-23T20:21:58.850Z,14.17
2022-10-23T20:24:27.289Z,13.37
2022-10-23T20:26:57.800Z,13.97
2022-10-23T20:29:26.687Z,15.10
2022-10-23T20:31:55.204Z,15.60
2022-10-23T20:34:23.689Z,14.80
2022-10-23T20:36:52.212Z,15.17
2022-10-23T20:39:24.527Z,16.33
2022-10-23T20:41:55.167Z,15.43
2022-10-23T20:44:25.770Z,14.60
2022-10-23T20:46:54.565Z,14.10
2022-10-23T20:49:23.888Z,14.70
2022-10-23T20:51:55.162Z,16.67
2022-10-23T20:54:24.879Z,14.97
2022-10-23T20:56:53.587Z,16.47
2022-10-23T20:59:22.153Z,16.33
2022-10-23T21:01:56.204Z,15.93
2022-10-23T21:04:27.511Z,17.30
2022-10-23T21:07:12.894Z,16.37
2022-10-23T21:09:41.529Z,17.43
2022-10-23T21:12:10.386Z,17.97
2022-10-23T21:14:39.042Z,17.07
2022-10-23T21:17:11.972Z,17.13
2022-10-23T21:19:40.640Z,16.00
2022-10-23T21:22:09.096Z,17.10
2022-10-23T21:24:37.538Z,17.30
2022-10-23T21:27:06.207Z,17.80
2022-10-23T21:29:34.690Z,17.43
2022-10-23T21:32:03.189Z,18.17
2022-10-23T21:34:33.213Z,17.17
2022-10-23T21:37:17.674Z,18.67
2022-10-23T21:39:47.255Z,19.20
2022-10-23T21:42:16.179Z,18.83
2022-10-23T21:44:47.791Z,19.07
2022-10-23T21:47:16.358Z,17.00
2022-10-23T21:49:46.371Z,18.53
2022-10-23T21:52:17.585Z,17.20
2022-10-23T21:54:52.226Z,16.87
2022-10-23T21:57:21.026Z,15.50
2022-10-23T21:59:49.932Z,16.37
2022-10-23T22:02:18.571Z,16.47
2022-10-23T22:04:48.610Z,15.23
2022-10-23T22:07:17.172Z,15.47
2022-10-23T22:09:45.901Z,16.73
2022-10-23T22:12:14.467Z,15.67
2022-10-23T22:14:43.267Z,16.87
2022-10-23T22:17:11.748Z,16.40
2022-10-23T22:19:40.250Z,16.83
2022-10-23T22:22:10.179Z,16.40
2022-10-23T22:24:38.792Z,15.73
2022-10-23T22:27:07.395Z,14.20
2022-10-23T22:29:35.818Z,12.63
2022-10-23T22:32:04.330Z,12.10
2022-10-23T22:34:51.894Z,11.20
2022-10-23T22:37:22.823Z,11.07
2022-10-23T22:39:52.650Z,11.13
2022-10-23T22:42:21.563Z,10.50
2022-10-23T22:44:50.180Z,10.37
2022-10-23T22:47:18.611Z,8.93
2022-10-23T22:49:47.066Z,8.90
2022-10-23T22:52:15.634Z,8.60
2022-10-23T22:54:45.704Z,8.90
2022-10-23T22:57:14.201Z,8.90
2022-10-23T22:59:42.681Z,7.97
2022-10-23T23:02:11.181Z,7.63
2022-10-23T23:04:39.837Z,8.00
2022-10-23T23:07:09.328Z,8.90
2022-10-23T23:09:39.654Z,8.43
2022-10-23T23:12:11.355Z,8.40
2022-10-23T23:14:40.344Z,8.90
2022-10-23T23:17:09.498Z,8.47
2022-10-23T23:19:38.236Z,9.20
2022-10-23T23:22:06.970Z,8.70
2022-10-23T23:24:35.466Z,9.37
2022-10-23T23:27:03.963Z,9.87
2022-10-23T23:29:33.860Z,9.70
2022-10-23T23:32:02.359Z,8.63
2022-10-23T23:34:31.002Z,8.43
2022-10-23T23:36:59.437Z,8.33
2022-10-23T23:39:28.588Z,9.10
2022-10-23T23:41:57.240Z,10.90
2022-10-23T23:44:25.742Z,11.20
2022-10-23T23:46:55.878Z,13.00
2022-10-23T23:49:25.091Z,12.90
2022-10-23T23:51:53.650Z,12.70
2022-10-23T23:54:22.148Z,14.33
2022-10-23T23:56:50.626Z,14.53
2022-10-23T23:59:19.181Z,15.07
